createdAt,value
2023-01-19T00:07:15.732Z,6.43
2023-01-19T00:17:18.788Z,8.53
2023-01-19T00:27:23.415Z,8.30
2023-01-19T00:37:26.501Z,7.90
2023-01-19T00:47:32.175Z,8.27
2023-01-19T00:57:35.305Z,8.30
2023-01-19T01:07:41.710Z,7.27
2023-01-19T01:17:47.753Z,7.97
2023-01-19T01:27:52.630Z,6.17
2023-01-19T01:37:59.431Z,6.73
2023-01-19T01:48:09.847Z,8.10
2023-01-19T01:58:13.676Z,6.40
2023-01-19T02:08:38.464Z,6.00
2023-01-19T02:18:42.486Z,6.67
2023-01-19T02:28:50.439Z,8.43
2023-01-19T02:38:57.068Z,7.50
2023-01-19T02:49:02.205Z,10.83
2023-01-19T02:59:15.566Z,6.70
2023-01-19T03:09:29.651Z,6.03
2023-01-19T03:19:36.547Z,6.43
2023-01-19T03:29:43.894Z,6.63
2023-01-19T03:39:47.238Z,7.33
2023-01-19T03:49:53.967Z,7.80
2023-01-19T03:59:57.101Z,8.03
2023-01-19T04:10:01.738Z,7.43
2023-01-19T04:20:05.216Z,7.30
2023-01-19T04:30:11.373Z,7.57
2023-01-19T04:40:15.645Z,7.17
2023-01-19T04:50:20.292Z,7.47
2023-01-19T05:00:24.444Z,8.70
2023-01-19T05:10:29.514Z,7.47
2023-01-19T05:20:32.618Z,8.00
2023-01-19T05:30:37.191Z,7.43
2023-01-19T05:40:40.219Z,8.33
2023-01-19T05:50:44.788Z,6.23
2023-01-19T06:00:47.965Z,5.73
2023-01-19T06:10:52.552Z,6.73
2023-01-19T06:20:58.713Z,7.73
2023-01-19T06:31:03.758Z,6.90
2023-01-19T06:41:07.111Z,6.13
2023-01-19T06:51:11.573Z,7.10
2023-01-19T07:01:15.058Z,6.83
2023-01-19T07:11:25.850Z,6.20
2023-01-19T07:21:34.265Z,6.10
2023-01-19T07:31:38.848Z,9.97
2023-01-19T07:41:42.031Z,6.13
2023-01-19T07:51:46.455Z,7.97
2023-01-19T08:01:49.599Z,7.27
2023-01-19T08:11:54.147Z,7.60
2023-01-19T08:21:58.852Z,8.13
2023-01-19T08:32:03.358Z,7.00
2023-01-19T08:42:06.507Z,8.23
2023-01-19T08:52:10.904Z,8.37
2023-01-19T09:02:13.974Z,6.13
2023-01-19T09:12:18.450Z,7.10
2023-01-19T09:22:21.544Z,8.93
2023-01-19T09:32:26.009Z,7.00
2023-01-19T09:42:36.462Z,10.33
2023-01-19T09:52:44.832Z,9.13
2023-01-19T10:02:52.972Z,7.90
2023-01-19T10:13:13.933Z,9.07
2023-01-19T10:23:30.273Z,7.77
2023-01-19T10:33:35.401Z,7.20
2023-01-19T10:43:41.526Z,6.03
2023-01-19T10:53:56.704Z,6.50
2023-01-19T11:04:05.660Z,4.40
2023-01-19T11:14:13.421Z,6.20
2023-01-19T11:24:16.678Z,6.03
2023-01-19T11:34:33.808Z,5.23
2023-01-19T11:44:42.491Z,4.30
2023-01-19T11:54:53.505Z,4.57
2023-01-19T12:05:01.320Z,6.43
2023-01-19T12:15:09.918Z,6.07
2023-01-19T12:25:21.815Z,6.07
2023-01-19T12:35:58.237Z,5.47
2023-01-19T12:46:01.334Z,4.63
2023-01-19T12:56:10.384Z,4.70
2023-01-19T13:06:13.543Z,5.17
2023-01-19T13:16:59.091Z,4.20
2023-01-19T13:27:03.667Z,5.17
2023-01-19T13:37:09.324Z,6.17
2023-01-19T13:47:20.191Z,4.30
2023-01-19T13:57:25.277Z,4.13
2023-01-19T14:07:29.818Z,3.73
2023-01-19T14:17:33.188Z,3.87
2023-01-19T14:27:37.587Z,4.67
2023-01-19T14:37:48.892Z,4.73
2023-01-19T14:47:59.556Z,5.70
2023-01-19T14:58:02.744Z,5.30
2023-01-19T15:08:08.028Z,6.40
2023-01-19T15:18:17.588Z,6.13
2023-01-19T15:28:21.971Z,5.90
2023-01-19T15:38:26.544Z,10.17
2023-01-19T15:48:30.960Z,9.27
2023-01-19T15:58:34.038Z,6.53
2023-01-19T16:08:38.848Z,5.37
2023-01-19T16:18:41.956Z,8.23
2023-01-19T16:28:46.390Z,6.13
2023-01-19T16:38:49.543Z,9.03
2023-01-19T16:48:54.100Z,7.67
2023-01-19T16:58:58.394Z,7.20
2023-01-19T17:09:02.855Z,8.73
2023-01-19T17:19:07.529Z,7.67
2023-01-19T17:29:11.935Z,7.43
2023-01-19T17:39:16.866Z,7.23
2023-01-19T17:49:21.339Z,7.43
2023-01-19T17:59:24.432Z,8.70
2023-01-19T18:09:29.030Z,9.40
2023-01-19T18:19:32.158Z,10.37
2023-01-19T18:29:36.720Z,10.33
2023-01-19T18:39:39.738Z,8.73
2023-01-19T18:49:44.118Z,10.77
2023-01-19T18:59:48.778Z,11.30
2023-01-19T19:09:53.222Z,10.10
2023-01-19T19:19:56.255Z,11.17
2023-01-19T19:30:00.651Z,8.77
2023-01-19T19:40:03.875Z,11.33
2023-01-19T19:50:09.411Z,10.03
2023-01-19T20:00:13.223Z,9.80
2023-01-19T20:10:18.454Z,10.87
2023-01-19T20:20:21.490Z,9.13
2023-01-19T20:30:26.679Z,10.67
2023-01-19T20:40:29.752Z,12.67
2023-01-19T20:50:34.206Z,9.00
2023-01-19T21:00:37.416Z,12.97
2023-01-19T21:10:42.310Z,14.23
2023-01-19T21:20:45.827Z,8.47
2023-01-19T21:30:50.721Z,9.80
2023-01-19T21:40:53.991Z,9.17
2023-01-19T21:51:01.295Z,8.80
2023-01-19T22:01:06.589Z,10.87
2023-01-19T22:11:12.759Z,9.87
2023-01-19T22:21:17.446Z,9.43
2023-01-19T22:31:22.044Z,9.57
2023-01-19T22:41:27.420Z,9.47
2023-01-19T22:51:33.198Z,6.00
2023-01-19T23:01:38.333Z,7.33
2023-01-19T23:11:44.873Z,5.80
2023-01-19T23:21:51.086Z,8.43
2023-01-19T23:31:56.242Z,6.37
2023-01-19T23:41:59.336Z,5.87
2023-01-19T23:52:05.769Z,6.30
